createdAt,value
2017-12-03T00:00:40.097Z,1005.59
2017-12-03T00:01:50.144Z,1005.58
2017-12-03T00:03:00.216Z,1005.55
2017-12-03T00:04:09.832Z,1005.5
2017-12-03T00:05:19.903Z,1005.45
2017-12-03T00:06:29.692Z,1005.43
2017-12-03T00:07:39.759Z,1005.43
2017-12-03T00:08:50.041Z,1005.44
2017-12-03T00:09:59.901Z,1005.46
2017-12-03T00:11:09.957Z,1005.52
2017-12-03T00:12:19.748Z,1005.51
2017-12-03T00:13:29.564Z,1005.57
2017-12-03T00:14:39.634Z,1005.58
2017-12-03T00:15:49.448Z,1005.56
2017-12-03T00:16:59.583Z,1005.56
2017-12-03T00:18:09.682Z,1005.5
2017-12-03T00:19:19.773Z,1005.53
2017-12-03T00:20:29.825Z,1005.46
2017-12-03T00:21:39.898Z,1005.46
2017-12-03T00:22:49.161Z,1005.49
2017-12-03T00:23:59.232Z,1005.43
2017-12-03T00:25:09.315Z,1005.44
2017-12-03T00:26:19.417Z,1005.42
2017-12-03T00:27:29.479Z,1005.42
2017-12-03T00:28:39.284Z,1005.42
2017-12-03T00:29:49.482Z,1005.42
2017-12-03T00:30:59.281Z,1005.43
2017-12-03T00:32:09.340Z,1005.46
2017-12-03T00:33:19.175Z,1005.49
2017-12-03T00:34:28.966Z,1005.51
2017-12-03T00:35:39.039Z,1005.51
2017-12-03T00:36:48.865Z,1005.53
2017-12-03T00:37:58.952Z,1005.54
2017-12-03T00:39:08.534Z,1005.57
2017-12-03T00:40:18.589Z,1005.6
2017-12-03T00:41:28.392Z,1005.61
2017-12-03T00:42:38.197Z,1005.6
2017-12-03T00:43:48.263Z,1005.57
2017-12-03T00:44:58.097Z,1005.64
2017-12-03T00:46:07.626Z,1005.63
2017-12-03T00:47:17.683Z,1005.63
2017-12-03T00:48:27.229Z,1005.64
2017-12-03T00:49:37.422Z,1005.61
2017-12-03T00:50:47.476Z,1005.57
2017-12-03T00:51:57.270Z,1005.53
2017-12-03T00:53:07.319Z,1005.57
2017-12-03T00:54:17.378Z,1005.52
2017-12-03T00:55:27.175Z,1005.52
2017-12-03T00:56:37.305Z,1005.48
2017-12-03T00:57:46.579Z,1005.41
2017-12-03T00:58:56.670Z,1005.43
2017-12-03T01:00:06.464Z,1005.42
2017-12-03T01:01:16.277Z,1005.37
2017-12-03T01:02:27.490Z,1005.36
2017-12-03T01:03:37.271Z,1005.35
2017-12-03T01:04:47.324Z,1005.37
2017-12-03T01:05:57.387Z,1005.34
2017-12-03T01:07:07.455Z,1005.31
2017-12-03T01:08:17.556Z,1005.29
2017-12-03T01:09:27.343Z,1005.33
2017-12-03T01:10:37.406Z,1005.31
2017-12-03T01:11:46.941Z,1005.34
2017-12-03T01:12:57.046Z,1005.32
2017-12-03T01:14:06.848Z,1005.29
2017-12-03T01:15:16.899Z,1005.26
2017-12-03T01:16:26.946Z,1005.26
2017-12-03T01:17:36.746Z,1005.14
2017-12-03T01:18:46.804Z,1005.17
2017-12-03T01:19:56.620Z,1005.14
2017-12-03T01:21:06.966Z,1005.1
2017-12-03T01:22:16.229Z,1005.07
2017-12-03T01:23:25.501Z,1005.02
2017-12-03T01:24:35.324Z,1004.99
2017-12-03T01:25:45.394Z,1005
2017-12-03T01:26:55.457Z,1004.97
2017-12-03T01:28:05.247Z,1004.99
2017-12-03T01:29:14.754Z,1004.93
2017-12-03T01:30:24.562Z,1004.88
2017-12-03T01:31:34.363Z,1004.86
2017-12-03T01:32:44.407Z,1004.87
2017-12-03T01:33:54.197Z,1004.88
2017-12-03T01:35:03.999Z,1004.83
2017-12-03T01:36:14.127Z,1004.85
2017-12-03T01:37:23.950Z,1004.84
2017-12-03T01:38:34.015Z,1004.8
2017-12-03T01:39:43.559Z,1004.79
2017-12-03T01:40:53.380Z,1004.71
2017-12-03T01:42:03.190Z,1004.72
2017-12-03T01:43:13.256Z,1004.69
2017-12-03T01:44:23.524Z,1004.64
2017-12-03T01:45:33.058Z,1004.65
2017-12-03T01:46:42.836Z,1004.61
2017-12-03T01:47:52.668Z,1004.58
2017-12-03T01:49:02.733Z,1004.53
2017-12-03T01:50:12.795Z,1004.51
2017-12-03T01:51:22.603Z,1004.52
2017-12-03T01:52:32.410Z,1004.47
2017-12-03T01:53:42.526Z,1004.44
2017-12-03T01:54:52.590Z,1004.43
2017-12-03T01:56:02.661Z,1004.39
2017-12-03T01:57:12.473Z,1004.35
2017-12-03T01:58:22.538Z,1004.3
2017-12-03T01:59:32.376Z,1004.29
2017-12-03T02:00:42.425Z,1004.28
2017-12-03T02:01:52.498Z,1004.29
2017-12-03T02:03:02.538Z,1004.17
2017-12-03T02:04:12.603Z,1004.18
2017-12-03T02:05:22.475Z,1004.15
2017-12-03T02:06:32.281Z,1004.21
2017-12-03T02:07:42.068Z,1004.14
2017-12-03T02:08:52.119Z,1004.19
2017-12-03T02:10:01.681Z,1004.16
2017-12-03T02:11:11.807Z,1004.12
2017-12-03T02:12:21.866Z,1004.11
2017-12-03T02:13:31.663Z,1004.16
2017-12-03T02:14:41.480Z,1004.21
2017-12-03T02:15:51.280Z,1004.22
2017-12-03T02:17:01.091Z,1004.22
2017-12-03T02:18:11.140Z,1004.27
2017-12-03T02:19:20.941Z,1004.21
2017-12-03T02:20:30.988Z,1004.15
2017-12-03T02:21:41.055Z,1004.17
2017-12-03T02:22:50.892Z,1004.1
2017-12-03T02:24:00.895Z,1004.13
2017-12-03T02:25:10.680Z,1004.05
2017-12-03T02:26:20.487Z,1004.04
2017-12-03T02:27:30.383Z,1004.01
2017-12-03T02:28:39.927Z,1004.02
2017-12-03T02:29:49.709Z,1004.01
2017-12-03T02:30:59.502Z,1004.01
2017-12-03T02:32:09.571Z,1004
2017-12-03T02:33:19.627Z,1004
2017-12-03T02:34:29.735Z,1004
2017-12-03T02:35:39.785Z,1003.97
2017-12-03T02:36:49.067Z,1004.01
2017-12-03T02:37:59.154Z,1004.04
2017-12-03T02:39:10.066Z,1004.01
2017-12-03T02:40:19.634Z,1004.02
2017-12-03T02:41:30.893Z,1004.04
2017-12-03T02:42:40.695Z,1004
2017-12-03T02:43:50.490Z,1004.01
2017-12-03T02:45:00.564Z,1003.9
2017-12-03T02:46:10.399Z,1003.91
2017-12-03T02:47:19.937Z,1003.89
2017-12-03T02:48:29.741Z,1003.88
2017-12-03T02:49:39.817Z,1003.84
2017-12-03T02:50:49.620Z,1003.77
2017-12-03T02:51:59.727Z,1003.8
2017-12-03T02:53:09.534Z,1003.79
2017-12-03T02:54:19.584Z,1003.83
2017-12-03T02:55:29.642Z,1003.82
2017-12-03T02:56:39.177Z,1003.88
2017-12-03T02:57:48.751Z,1003.9
2017-12-03T02:58:58.811Z,1003.86
2017-12-03T03:00:08.601Z,1003.88
2017-12-03T03:01:18.156Z,1003.93
2017-12-03T03:02:27.416Z,1003.95
2017-12-03T03:34:02.485Z,1004.1
2017-12-03T03:35:12.516Z,1004.08
2017-12-03T03:36:22.276Z,1004.1
2017-12-03T03:37:32.335Z,1004.12
2017-12-03T03:38:42.881Z,1004.11
2017-12-03T03:39:52.704Z,1004.06
2017-12-03T03:41:02.233Z,1004.1
2017-12-03T03:42:12.295Z,1004.12
2017-12-03T03:43:22.100Z,1004.11
2017-12-03T03:44:32.149Z,1004.13
2017-12-03T03:45:42.248Z,1004.11
2017-12-03T03:46:52.377Z,1004.06
2017-12-03T03:48:02.158Z,1004.08
2017-12-03T03:49:11.682Z,1004.05
2017-12-03T03:50:21.725Z,1004.1
2017-12-03T03:51:31.838Z,1004.06
2017-12-03T03:52:41.634Z,1004.13
2017-12-03T03:53:51.418Z,1004.15
2017-12-03T03:55:01.259Z,1004.09
2017-12-03T03:56:11.056Z,1004.12
2017-12-03T03:57:20.639Z,1004.15
2017-12-03T03:58:30.690Z,1004.18
2017-12-03T03:59:41.288Z,1004.16
2017-12-03T04:00:51.349Z,1004.16
2017-12-03T04:02:01.142Z,1004.15
2017-12-03T04:03:11.193Z,1004.16
2017-12-03T04:04:21.244Z,1004.15
2017-12-03T04:05:31.048Z,1004.14
2017-12-03T04:06:40.848Z,1004.14
2017-12-03T04:07:50.661Z,1004.21
2017-12-03T04:09:00.760Z,1004.13
2017-12-03T04:10:10.828Z,1004.21
2017-12-03T04:11:20.616Z,1004.17
2017-12-03T04:12:30.149Z,1004.19
2017-12-03T04:13:39.927Z,1004.17
2017-12-03T04:14:49.459Z,1004.16
2017-12-03T04:15:59.525Z,1004.18
2017-12-03T04:17:09.592Z,1004.19
2017-12-03T04:18:19.378Z,1004.24
2017-12-03T04:19:29.166Z,1004.19
2017-12-03T04:20:39.023Z,1004.25
2017-12-03T04:21:48.819Z,1004.25
2017-12-03T04:22:58.906Z,1004.23
2017-12-03T04:24:08.704Z,1004.27
2017-12-03T04:25:18.236Z,1004.25
2017-12-03T04:26:28.279Z,1004.27
2017-12-03T04:27:38.402Z,1004.26
2017-12-03T04:28:48.205Z,1004.31
2017-12-03T04:29:58.256Z,1004.37
2017-12-03T04:31:08.296Z,1004.29
2017-12-03T04:32:19.901Z,1004.35
2017-12-03T04:33:29.957Z,1004.36
2017-12-03T04:34:39.766Z,1004.4
2017-12-03T04:35:49.832Z,1004.38
2017-12-03T04:36:59.371Z,1004.41
2017-12-03T04:38:09.426Z,1004.43
2017-12-03T04:39:19.479Z,1004.45
2017-12-03T04:40:28.993Z,1004.44
2017-12-03T04:41:38.848Z,1004.46
2017-12-03T04:42:48.391Z,1004.43
2017-12-03T04:43:58.243Z,1004.4
2017-12-03T04:45:08.302Z,1004.41
2017-12-03T04:46:18.368Z,1004.34
2017-12-03T04:47:28.423Z,1004.27
2017-12-03T04:48:38.233Z,1004.26
2017-12-03T04:49:48.337Z,1004.16
2017-12-03T04:50:57.859Z,1004.16
2017-12-03T04:52:07.924Z,1004.14
2017-12-03T04:53:17.990Z,1004.13
2017-12-03T04:54:28.060Z,1004.17
2017-12-03T04:55:38.176Z,1004.18
2017-12-03T04:56:48.230Z,1004.2
2017-12-03T04:57:58.311Z,1004.21
2017-12-03T04:59:08.095Z,1004.17
2017-12-03T05:00:18.408Z,1004.18
2017-12-03T05:01:28.481Z,1004.17
2017-12-03T05:02:38.305Z,1004.21
2017-12-03T05:03:48.364Z,1004.2
2017-12-03T05:04:58.162Z,1004.21
2017-12-03T05:06:07.956Z,1004.27
2017-12-03T05:07:18.078Z,1004.25
2017-12-03T05:08:28.182Z,1004.23
2017-12-03T05:09:37.970Z,1004.21
2017-12-03T05:10:48.019Z,1004.25
2017-12-03T05:11:57.829Z,1004.2
2017-12-03T05:13:07.949Z,1004.24
2017-12-03T05:14:17.754Z,1004.21
2017-12-03T05:15:27.294Z,1004.17
2017-12-03T05:16:37.088Z,1004.12
2017-12-03T05:17:47.128Z,1004.18
2017-12-03T05:18:56.971Z,1004.2
2017-12-03T05:20:06.766Z,1004.16
2017-12-03T05:21:16.813Z,1004.2
2017-12-03T05:22:26.862Z,1004.15
2017-12-03T05:23:36.918Z,1004.14
2017-12-03T05:24:46.976Z,1004.06
2017-12-03T05:25:56.751Z,1004.04
2017-12-03T05:27:06.284Z,1004.09
2017-12-03T05:28:16.081Z,1004.12
2017-12-03T05:29:26.155Z,1004.13
2017-12-03T05:30:35.956Z,1004.18
2017-12-03T05:31:45.995Z,1004.16
2017-12-03T05:32:55.806Z,1004.15
2017-12-03T05:34:05.583Z,1004.15
2017-12-03T05:35:15.642Z,1004.16
2017-12-03T05:36:25.757Z,1004.18
2017-12-03T05:37:35.310Z,1004.14
2017-12-03T05:38:45.393Z,1004.14
2017-12-03T05:39:55.429Z,1004.27
2017-12-03T05:41:05.489Z,1004.21
2017-12-03T05:42:15.613Z,1004.25
2017-12-03T05:43:25.658Z,1004.19
2017-12-03T05:44:35.711Z,1004.19
2017-12-03T05:45:44.966Z,1004.15
2017-12-03T05:46:55.072Z,1004.15
2017-12-03T05:48:04.869Z,1004.1
2017-12-03T05:49:14.928Z,1004.11
2017-12-03T05:50:24.494Z,1004.13
2017-12-03T05:51:34.554Z,1004.14
2017-12-03T05:52:44.631Z,1004.18
2017-12-03T05:53:54.169Z,1004.17
2017-12-03T05:55:04.230Z,1004.16
2017-12-03T05:56:14.028Z,1004.18
2017-12-03T05:57:23.841Z,1004.1
2017-12-03T05:58:33.901Z,1004.12
2017-12-03T05:59:43.952Z,1004.15
2017-12-03T06:00:53.759Z,1004.12
2017-12-03T06:02:03.840Z,1004.09
2017-12-03T06:03:13.363Z,1004.05
2017-12-03T06:04:23.427Z,1004.07
2017-12-03T06:05:33.473Z,1004.06
2017-12-03T06:06:43.279Z,1004.07
2017-12-03T06:07:53.330Z,1004.07
2017-12-03T06:09:03.377Z,1004
2017-12-03T06:10:13.435Z,1003.99
2017-12-03T06:11:23.279Z,1003.97
2017-12-03T06:12:32.826Z,1003.99
2017-12-03T06:13:42.874Z,1004.04
2017-12-03T06:14:52.685Z,1003.98
2017-12-03T06:16:02.487Z,1004.01
2017-12-03T06:17:12.349Z,1003.98
2017-12-03T06:18:22.145Z,1004.06
2017-12-03T06:19:32.193Z,1004.04
2017-12-03T06:20:42.233Z,1004.03
2017-12-03T06:21:52.021Z,1004.04
2017-12-03T06:23:01.609Z,1004.03
2017-12-03T06:24:11.667Z,1004.13
2017-12-03T06:25:21.765Z,1004.08
2017-12-03T06:26:31.805Z,1004.06
2017-12-03T06:27:41.859Z,1004.06
2017-12-03T06:28:51.916Z,1004.07
2017-12-03T06:30:01.978Z,1004.04
2017-12-03T06:31:12.030Z,1004.01
2017-12-03T06:32:21.292Z,1004.01
2017-12-03T06:33:31.349Z,1004
2017-12-03T06:34:41.458Z,1004.05
2017-12-03T06:35:51.522Z,1004.06
2017-12-03T06:37:02.473Z,1004.04
2017-12-03T06:38:12.520Z,1004.06
2017-12-03T06:39:22.568Z,1004.03
2017-12-03T06:40:32.683Z,1004.01
2017-12-03T06:41:42.729Z,1004
2017-12-03T06:42:52.259Z,1004.06
2017-12-03T06:44:02.079Z,1004.13
2017-12-03T06:45:12.142Z,1004.13
2017-12-03T06:46:21.976Z,1004.12
2017-12-03T06:47:32.039Z,1004.11
2017-12-03T06:48:42.092Z,1004.1
2017-12-03T06:49:51.901Z,1004.09
2017-12-03T06:51:01.691Z,1004.05
2017-12-03T06:52:11.485Z,1004.08
2017-12-03T06:53:21.029Z,1004.06
2017-12-03T06:54:30.823Z,1004.04
2017-12-03T06:55:40.355Z,1003.96
2017-12-03T06:56:50.412Z,1003.99
2017-12-03T06:58:00.495Z,1003.96
2017-12-03T06:59:10.269Z,1003.94
2017-12-03T07:00:20.312Z,1003.88
2017-12-03T07:01:30.372Z,1003.92
2017-12-03T07:02:39.651Z,1003.91
2017-12-03T07:03:49.711Z,1003.95
2017-12-03T07:04:59.775Z,1003.96
2017-12-03T07:06:09.761Z,1003.99
2017-12-03T07:07:19.834Z,1003.95
2017-12-03T07:08:29.619Z,1004.01
2017-12-03T07:09:39.424Z,1003.96
2017-12-03T07:10:49.494Z,1003.96
2017-12-03T07:11:59.586Z,1003.94
2017-12-03T07:13:09.762Z,1003.97
2017-12-03T07:14:19.843Z,1003.95
2017-12-03T07:15:29.378Z,1004.04
2017-12-03T07:16:39.442Z,1003.95
2017-12-03T07:17:49.514Z,1003.97
2017-12-03T07:18:59.688Z,1003.99
2017-12-03T07:20:09.510Z,1003.98
2017-12-03T07:21:19.627Z,1003.97
2017-12-03T07:22:29.450Z,1003.97
2017-12-03T07:23:39.516Z,1003.98
2017-12-03T07:24:49.566Z,1003.92
2017-12-03T07:25:59.356Z,1003.93
2017-12-03T07:27:09.204Z,1003.98
2017-12-03T07:28:18.977Z,1003.95
2017-12-03T07:29:29.061Z,1004.03
2017-12-03T07:30:38.916Z,1004.06
2017-12-03T07:31:48.713Z,1004.07
2017-12-03T07:32:58.553Z,1004.06
2017-12-03T07:34:08.625Z,1004.02
2017-12-03T07:35:18.410Z,1004.03
2017-12-03T07:36:28.190Z,1003.98
2017-12-03T07:37:37.982Z,1003.97
2017-12-03T07:38:47.819Z,1004.04
2017-12-03T07:39:57.868Z,1004.01
2017-12-03T07:41:07.671Z,1004
2017-12-03T07:42:17.477Z,1004
2017-12-03T07:43:27.296Z,1003.94
2017-12-03T07:44:37.106Z,1003.98
2017-12-03T07:45:46.652Z,1003.91
2017-12-03T07:46:55.928Z,1003.95
2017-12-03T07:48:06.050Z,1003.82
2017-12-03T07:49:16.095Z,1003.88
2017-12-03T07:50:25.884Z,1003.91
2017-12-03T07:51:35.947Z,1003.9
2017-12-03T07:52:46.020Z,1003.93
2017-12-03T07:53:55.553Z,1003.91
2017-12-03T07:55:05.676Z,1003.89
2017-12-03T07:56:15.744Z,1003.86
2017-12-03T07:57:25.799Z,1003.93
2017-12-03T07:58:35.642Z,1003.89
2017-12-03T07:59:45.724Z,1003.98
2017-12-03T08:00:55.782Z,1003.95
2017-12-03T08:02:05.914Z,1003.94
2017-12-03T08:03:16.225Z,1003.89
2017-12-03T08:04:26.298Z,1003.92
2017-12-03T08:05:35.836Z,1003.92
2017-12-03T08:06:45.638Z,1003.99
2017-12-03T08:07:55.691Z,1003.97
2017-12-03T08:09:05.756Z,1004.01
2017-12-03T08:10:15.812Z,1003.95
2017-12-03T08:11:27.591Z,1004.01
2017-12-03T08:12:37.661Z,1003.94
2017-12-03T08:13:47.462Z,1003.98
2017-12-03T08:14:57.690Z,1004
2017-12-03T08:16:07.517Z,1003.91
2017-12-03T08:17:17.329Z,1003.99
2017-12-03T08:18:27.125Z,1003.98
2017-12-03T08:19:36.919Z,1003.97
2017-12-03T08:20:46.986Z,1003.97
2017-12-03T08:21:57.497Z,1003.98
2017-12-03T08:23:07.568Z,1003.93
2017-12-03T08:24:17.652Z,1003.97
2017-12-03T08:25:27.441Z,1003.99
2017-12-03T08:26:37.513Z,1004.04
2017-12-03T08:27:47.305Z,1004
2017-12-03T08:28:57.373Z,1004.02
2017-12-03T08:30:06.903Z,1004.05
2017-12-03T08:31:16.218Z,1004.03
2017-12-03T08:32:26.379Z,1004.09
2017-12-03T08:33:36.185Z,1004.07
2017-12-03T08:34:45.980Z,1004.11
2017-12-03T08:35:55.768Z,1004.09
2017-12-03T08:37:05.830Z,1004.14
2017-12-03T08:38:15.897Z,1004.12
2017-12-03T08:39:27.361Z,1004.14
2017-12-03T08:40:37.154Z,1004.08
2017-12-03T08:41:47.227Z,1004.13
2017-12-03T08:42:57.075Z,1004.18
2017-12-03T08:44:07.137Z,1004.15
2017-12-03T08:45:17.201Z,1004.17
2017-12-03T08:46:27.317Z,1004.18
2017-12-03T08:47:37.405Z,1004.21
2017-12-03T08:48:47.249Z,1004.19
2017-12-03T08:49:57.317Z,1004.24
2017-12-03T08:51:07.131Z,1004.23
2017-12-03T08:52:17.185Z,1004.23
2017-12-03T08:53:27.261Z,1004.24
2017-12-03T08:54:37.388Z,1004.24
2017-12-03T08:55:47.203Z,1004.23
2017-12-03T08:56:56.992Z,1004.29
2017-12-03T08:58:06.802Z,1004.33
2017-12-03T08:59:16.867Z,1004.22
2017-12-03T09:00:28.040Z,1004.3
2017-12-03T09:01:37.854Z,1004.25
2017-12-03T09:02:47.915Z,1004.27
2017-12-03T09:03:57.708Z,1004.27
2017-12-03T09:05:07.513Z,1004.3
2017-12-03T09:06:17.587Z,1004.3
2017-12-03T09:07:27.660Z,1004.26
2017-12-03T09:08:37.456Z,1004.31
2017-12-03T09:09:47.530Z,1004.31
2017-12-03T09:10:57.335Z,1004.31
2017-12-03T09:12:07.127Z,1004.35
2017-12-03T09:13:17.182Z,1004.31
2017-12-03T09:14:27.257Z,1004.33
2017-12-03T09:15:37.065Z,1004.28
2017-12-03T09:16:47.163Z,1004.33
2017-12-03T09:17:56.995Z,1004.31
2017-12-03T09:19:07.074Z,1004.33
2017-12-03T09:20:17.129Z,1004.34
2017-12-03T09:21:27.088Z,1004.22
2017-12-03T09:22:37.150Z,1004.2
2017-12-03T09:23:46.984Z,1004.29
2017-12-03T09:24:57.053Z,1004.22
2017-12-03T09:26:07.136Z,1004.18
2017-12-03T09:27:16.955Z,1004.16
2017-12-03T09:28:26.757Z,1004.26
2017-12-03T09:29:36.612Z,1004.18
2017-12-03T09:30:46.436Z,1004.17
2017-12-03T09:31:56.235Z,1004.18
2017-12-03T09:33:06.038Z,1004.19
2017-12-03T09:34:15.870Z,1004.16
2017-12-03T09:35:25.947Z,1004.11
2017-12-03T09:36:35.724Z,1004.14
2017-12-03T09:37:45.798Z,1004.18
2017-12-03T09:38:55.612Z,1004.18
2017-12-03T09:40:05.674Z,1004.18
2017-12-03T09:41:15.526Z,1004.11
2017-12-03T09:42:25.325Z,1004.16
2017-12-03T09:43:35.127Z,1004.17
2017-12-03T09:44:45.206Z,1004.12
2017-12-03T09:45:55.320Z,1004.09
2017-12-03T09:47:05.128Z,1004.1
2017-12-03T09:48:15.187Z,1004.06
2017-12-03T09:49:26.464Z,1003.99
2017-12-03T09:50:36.552Z,1004.01
2017-12-03T09:51:46.607Z,1004.01
2017-12-03T09:52:56.839Z,1004.04
2017-12-03T09:54:07.098Z,1004.04
2017-12-03T09:55:17.239Z,1004.06
2017-12-03T09:56:27.084Z,1004
2017-12-03T09:57:36.914Z,1004.04
2017-12-03T09:58:46.515Z,1004.06
2017-12-03T09:59:56.335Z,1004.06
2017-12-03T10:01:06.400Z,1004
2017-12-03T10:02:16.502Z,1004.06
2017-12-03T10:03:26.812Z,1004.06
2017-12-03T10:04:36.904Z,1004.12
2017-12-03T10:05:46.451Z,1004.08
2017-12-03T10:06:56.240Z,1004.05
2017-12-03T10:08:06.042Z,1004.13
2017-12-03T10:09:15.606Z,1004.11
2017-12-03T10:10:25.741Z,1004.14
2017-12-03T10:11:35.261Z,1004.11
2017-12-03T10:12:45.071Z,1004.14
2017-12-03T10:13:55.151Z,1004.1
2017-12-03T10:15:05.230Z,1004.14
2017-12-03T10:16:15.421Z,1004.13
2017-12-03T10:17:25.219Z,1004.01
2017-12-03T10:18:35.301Z,1004.16
2017-12-03T10:19:44.826Z,1004.07
2017-12-03T10:20:54.889Z,1004.13
2017-12-03T10:22:04.679Z,1004
2017-12-03T10:23:14.745Z,1004.14
2017-12-03T10:24:24.541Z,1004.12
2017-12-03T10:25:34.389Z,1004.1
2017-12-03T10:26:44.196Z,1004.19
2017-12-03T10:27:54.053Z,1004.13
2017-12-03T10:29:03.865Z,1004.02
2017-12-03T10:30:13.999Z,1004.05
2017-12-03T10:31:24.046Z,1004.08
2017-12-03T10:32:34.108Z,1004.06
2017-12-03T10:33:43.653Z,1004.04
2017-12-03T10:34:53.453Z,1003.99
2017-12-03T10:36:03.255Z,1003.97
2017-12-03T10:37:13.344Z,1003.97
2017-12-03T10:38:23.130Z,1003.95
2017-12-03T10:39:32.667Z,1003.92
2017-12-03T10:40:42.716Z,1003.9
2017-12-03T10:41:52.536Z,1004
2017-12-03T10:43:02.999Z,1003.89
2017-12-03T10:44:13.058Z,1003.91
2017-12-03T10:45:23.017Z,1003.84
2017-12-03T10:46:32.556Z,1003.85
2017-12-03T10:47:42.369Z,1003.71
2017-12-03T10:48:52.454Z,1003.85
2017-12-03T10:50:02.573Z,1003.77
2017-12-03T10:51:12.169Z,1003.84
2017-12-03T10:52:22.011Z,1003.87
2017-12-03T10:53:32.085Z,1003.79
2017-12-03T10:54:44.269Z,1003.88
2017-12-03T10:55:54.383Z,1003.89
2017-12-03T10:57:04.538Z,1003.84
2017-12-03T10:58:14.619Z,1003.94
2017-12-03T10:59:24.738Z,1003.76
2017-12-03T11:00:34.819Z,1003.82
2017-12-03T11:01:45.489Z,1003.8
2017-12-03T11:02:55.633Z,1003.77
2017-12-03T11:04:05.727Z,1003.87
2017-12-03T11:05:15.807Z,1003.74
2017-12-03T11:06:25.877Z,1003.66
2017-12-03T11:07:35.942Z,1003.79
2017-12-03T11:08:46.074Z,1003.68
2017-12-03T11:09:55.888Z,1003.77
2017-12-03T11:11:06.295Z,1003.86
2017-12-03T11:12:16.109Z,1003.77
2017-12-03T11:13:25.942Z,1003.79
2017-12-03T11:14:35.791Z,1003.7
2017-12-03T11:15:47.031Z,1003.79
2017-12-03T11:16:57.115Z,1003.71
2017-12-03T11:18:07.194Z,1003.88
2017-12-03T11:19:17.276Z,1003.86
2017-12-03T11:20:27.146Z,1003.91
2017-12-03T11:21:37.221Z,1003.83
2017-12-03T11:22:47.297Z,1003.83
2017-12-03T11:23:57.367Z,1003.85
2017-12-03T11:25:07.511Z,1003.86
2017-12-03T11:26:17.306Z,1003.78
2017-12-03T11:27:27.434Z,1003.89
2017-12-03T11:28:37.279Z,1003.88
2017-12-03T11:29:47.369Z,1003.86
2017-12-03T11:30:57.431Z,1003.94
2017-12-03T11:32:07.291Z,1003.82
2017-12-03T11:33:17.365Z,1003.8
2017-12-03T11:34:27.435Z,1003.81
2017-12-03T11:35:36.977Z,1003.81
2017-12-03T11:36:47.099Z,1003.85
2017-12-03T11:37:56.891Z,1003.87
2017-12-03T11:39:06.439Z,1003.83
2017-12-03T11:40:16.271Z,1003.97
2017-12-03T11:41:26.057Z,1003.85
2017-12-03T11:42:36.127Z,1003.83
2017-12-03T11:43:45.998Z,1003.82
2017-12-03T11:44:55.811Z,1003.83
2017-12-03T11:46:05.095Z,1003.82
2017-12-03T11:47:15.150Z,1003.83
2017-12-03T11:48:25.483Z,1003.91
2017-12-03T11:49:35.583Z,1003.96
2017-12-03T11:50:45.635Z,1003.81
2017-12-03T11:51:55.469Z,1003.84
2017-12-03T11:53:05.300Z,1003.92
2017-12-03T11:54:15.358Z,1003.9
2017-12-03T11:55:25.162Z,1003.73
2017-12-03T11:56:34.956Z,1003.83
2017-12-03T11:57:45.015Z,1003.83
2017-12-03T11:58:55.070Z,1003.85
2017-12-03T12:00:04.931Z,1003.74
2017-12-03T12:01:14.747Z,1003.82
2017-12-03T12:02:24.813Z,1003.85
2017-12-03T12:03:34.886Z,1004
2017-12-03T12:04:44.955Z,1003.77
2017-12-03T12:05:54.782Z,1003.77
2017-12-03T12:07:04.658Z,1003.78
2017-12-03T12:08:14.754Z,1003.81
2017-12-03T12:09:24.835Z,1003.78
2017-12-03T12:10:34.929Z,1003.8
2017-12-03T12:11:44.730Z,1003.73
2017-12-03T12:12:54.820Z,1003.8
2017-12-03T12:14:04.626Z,1003.76
2017-12-03T12:15:14.463Z,1003.83
2017-12-03T12:16:24.530Z,1003.86
2017-12-03T12:17:34.348Z,1003.9
2017-12-03T12:18:44.471Z,1003.94
2017-12-03T12:19:54.551Z,1003.87
2017-12-03T12:21:04.092Z,1003.89
2017-12-03T12:22:13.644Z,1003.84
2017-12-03T12:23:23.795Z,1003.88
2017-12-03T12:24:33.648Z,1003.9
2017-12-03T12:25:43.712Z,1003.92
2017-12-03T12:26:53.770Z,1003.92
2017-12-03T12:28:03.050Z,1003.81
2017-12-03T12:29:12.884Z,1003.81
2017-12-03T12:30:22.495Z,1003.86
2017-12-03T12:31:32.319Z,1003.86
2017-12-03T12:32:42.150Z,1003.83
2017-12-03T12:33:52.242Z,1003.78
2017-12-03T12:35:02.306Z,1003.76
2017-12-03T12:36:12.152Z,1003.79
2017-12-03T12:37:21.943Z,1003.75
2017-12-03T12:38:31.776Z,1003.75
2017-12-03T12:39:41.900Z,1003.78
2017-12-03T12:40:52.001Z,1003.77
2017-12-03T12:42:01.826Z,1003.78
2017-12-03T12:43:11.919Z,1003.75
2017-12-03T12:44:21.702Z,1003.75
2017-12-03T12:45:31.768Z,1003.76
2017-12-03T12:46:41.853Z,1003.79
2017-12-03T12:47:52.013Z,1003.73
2017-12-03T12:49:01.819Z,1003.73
2017-12-03T12:50:11.625Z,1003.7
2017-12-03T12:51:21.704Z,1003.73
2017-12-03T12:52:31.497Z,1003.75
2017-12-03T12:53:41.623Z,1003.71
2017-12-03T12:54:51.696Z,1003.88
2017-12-03T12:56:01.835Z,1003.65
2017-12-03T12:57:11.917Z,1003.69
2017-12-03T12:58:21.698Z,1003.76
2017-12-03T12:59:31.830Z,1003.67
2017-12-03T13:00:41.658Z,1003.72
2017-12-03T13:01:51.732Z,1003.68
2017-12-03T13:03:01.798Z,1003.76
2017-12-03T13:04:11.869Z,1003.69
2017-12-03T13:05:21.750Z,1003.7
2017-12-03T13:06:31.592Z,1003.72
2017-12-03T13:07:41.677Z,1003.69
2017-12-03T13:08:51.749Z,1003.68
2017-12-03T13:10:01.831Z,1003.7
2017-12-03T13:11:11.697Z,1003.78
2017-12-03T13:12:21.768Z,1003.7
2017-12-03T13:13:31.585Z,1003.7
2017-12-03T13:14:41.411Z,1003.72
2017-12-03T13:15:51.202Z,1003.72
2017-12-03T13:17:01.334Z,1003.67
2017-12-03T13:18:11.146Z,1003.66
2017-12-03T13:19:20.957Z,1003.69
2017-12-03T13:20:30.833Z,1003.67
2017-12-03T13:21:40.899Z,1003.69
2017-12-03T13:22:50.815Z,1003.69
2017-12-03T13:24:00.908Z,1003.72
2017-12-03T13:25:11.264Z,1003.73
2017-12-03T13:26:21.080Z,1003.76
2017-12-03T13:27:30.903Z,1003.81
2017-12-03T13:28:41.019Z,1003.75
2017-12-03T13:29:50.636Z,1003.77
2017-12-03T13:31:00.439Z,1003.75
2017-12-03T13:32:10.529Z,1003.75
2017-12-03T13:33:20.624Z,1003.75
2017-12-03T13:34:30.489Z,1003.76
2017-12-03T13:35:40.555Z,1003.73
2017-12-03T13:36:50.098Z,1003.78
2017-12-03T13:37:59.901Z,1003.84
2017-12-03T13:39:09.438Z,1003.68
2017-12-03T13:40:19.552Z,1003.75
2017-12-03T13:41:29.692Z,1003.65
2017-12-03T13:42:39.287Z,1003.72
2017-12-03T13:43:49.359Z,1003.82
2017-12-03T13:44:59.430Z,1003.73
2017-12-03T13:46:09.528Z,1003.76
2017-12-03T13:47:19.328Z,1003.61
2017-12-03T13:48:29.148Z,1003.67
2017-12-03T13:49:38.991Z,1003.7
2017-12-03T13:50:48.882Z,1003.68
2017-12-03T13:51:58.489Z,1003.72
2017-12-03T13:53:08.025Z,1003.64
2017-12-03T13:54:18.112Z,1003.7
2017-12-03T13:55:27.917Z,1003.68
2017-12-03T13:56:37.195Z,1003.63
2017-12-03T13:57:47.252Z,1003.67
2017-12-03T13:58:57.068Z,1003.66
2017-12-03T14:00:08.525Z,1003.61
2017-12-03T14:01:18.321Z,1003.68
2017-12-03T14:02:27.864Z,1003.68
2017-12-03T14:03:37.760Z,1003.7
2017-12-03T14:04:47.582Z,1003.69
2017-12-03T14:05:57.669Z,1003.71
2017-12-03T14:07:07.481Z,1003.73
2017-12-03T14:08:17.308Z,1003.67
2017-12-03T14:09:27.451Z,1003.78
2017-12-03T14:10:37.550Z,1003.87
2017-12-03T14:11:47.635Z,1003.81
2017-12-03T14:12:57.450Z,1003.8
2017-12-03T14:14:07.251Z,1003.87
2017-12-03T14:15:17.068Z,1003.83
2017-12-03T14:16:26.901Z,1003.84
2017-12-03T14:17:36.184Z,1003.75
2017-12-03T14:18:45.997Z,1003.8
2017-12-03T14:19:56.074Z,1003.82
2017-12-03T14:21:06.149Z,1003.79
2017-12-03T14:22:16.275Z,1003.81
2017-12-03T14:23:26.381Z,1003.76
2017-12-03T14:24:36.455Z,1003.72
2017-12-03T14:25:46.557Z,1003.74
2017-12-03T14:26:56.650Z,1003.91
2017-12-03T14:28:06.730Z,1003.77
2017-12-03T14:29:16.850Z,1003.87
2017-12-03T14:30:26.918Z,1003.8
2017-12-03T14:31:36.999Z,1003.84
2017-12-03T14:32:47.143Z,1003.93
2017-12-03T14:33:57.252Z,1003.78
2017-12-03T14:35:07.103Z,1003.77
2017-12-03T14:36:17.183Z,1003.87
2017-12-03T14:37:27.262Z,1003.84
2017-12-03T14:40:03.420Z,1003.86
2017-12-03T14:41:13.565Z,1003.79